Terminal Aerodrome Forecast
Issued by NWS Cleveland, OH

Home | Current Version | Previous Version | Text Only | Print | Product List | Glossary Off
Versions: 1 2 3 4 5 6 7 8 9 10 11 12 13 14 15 16 17 18 19 20 21

000
FTUS41 KCLE 300325 AAA
TAFCAK
TAF AMD
KCAK 300325Z 3003/3024 14008KT P6SM SCT025 OVC045
      TEMPO 3003/3007 4SM -SHRA BR SCT015 OVC025
     FM300700 18006KT 4SM BR SCT007 OVC015
     FM301000 20006KT 2SM BR BKN007 OVC015
     FM301330 20006KT 4SM BR BKN007 OVC015
     FM301500 20008KT P6SM BKN015
     FM301900 22010KT P6SM -SHRA BKN025
      TEMPO 3019/3023 3SM TSRA OVC015CB=

USA.gov is the U.S. government's official web portal to all federal, state and local government web resources and services.